sensor_id;sensor_type;location;lat;lon;timestamp;P1;durP1;ratioP1;P2;durP2;ratioP2
16963;SDS011;8598;50.508;10.436;2023-04-16T00:00:11;6.97;;;5.23;;
16963;SDS011;8598;50.508;10.436;2023-04-16T00:02:38;6.57;;;4.57;;
16963;SDS011;8598;50.508;10.436;2023-04-16T00:05:05;6.80;;;4.83;;
16963;SDS011;8598;50.508;10.436;2023-04-16T00:07:32;6.83;;;4.97;;
16963;SDS011;8598;50.508;10.436;2023-04-16T00:09:58;6.50;;;4.80;;
16963;SDS011;8598;50.508;10.436;2023-04-16T00:12:26;6.40;;;4.83;;
16963;SDS011;8598;50.508;10.436;2023-04-16T00:14:53;7.80;;;5.57;;
16963;SDS011;8598;50.508;10.436;2023-04-16T00:17:20;7.73;;;4.50;;
16963;SDS011;8598;50.508;10.436;2023-04-16T00:19:46;6.07;;;4.70;;
16963;SDS011;8598;50.508;10.436;2023-04-16T00:22:13;6.40;;;4.60;;
16963;SDS011;8598;50.508;10.436;2023-04-16T00:24:40;6.70;;;5.03;;
16963;SDS011;8598;50.508;10.436;2023-04-16T00:27:06;7.67;;;5.00;;
16963;SDS011;8598;50.508;10.436;2023-04-16T00:29:34;7.03;;;5.37;;
16963;SDS011;8598;50.508;10.436;2023-04-16T00:32:01;9.80;;;6.53;;
16963;SDS011;8598;50.508;10.436;2023-04-16T00:34:27;9.30;;;6.43;;
16963;SDS011;8598;50.508;10.436;2023-04-16T00:36:54;10.43;;;6.73;;
16963;SDS011;8598;50.508;10.436;2023-04-16T00:39:21;9.40;;;6.93;;
16963;SDS011;8598;50.508;10.436;2023-04-16T00:41:47;11.10;;;7.97;;
16963;SDS011;8598;50.508;10.436;2023-04-16T00:44:14;12.63;;;8.03;;
16963;SDS011;8598;50.508;10.436;2023-04-16T00:46:42;9.93;;;7.10;;
16963;SDS011;8598;50.508;10.436;2023-04-16T00:49:10;12.30;;;8.70;;
16963;SDS011;8598;50.508;10.436;2023-04-16T00:51:37;15.30;;;8.83;;
16963;SDS011;8598;50.508;10.436;2023-04-16T00:54:04;17.70;;;10.17;;
16963;SDS011;8598;50.508;10.436;2023-04-16T00:56:31;16.00;;;10.50;;
16963;SDS011;8598;50.508;10.436;2023-04-16T00:59:00;17.80;;;10.87;;
16963;SDS011;8598;50.508;10.436;2023-04-16T01:01:27;17.57;;;12.50;;
16963;SDS011;8598;50.508;10.436;2023-04-16T01:03:55;18.20;;;12.00;;
16963;SDS011;8598;50.508;10.436;2023-04-16T01:06:22;19.60;;;12.93;;
16963;SDS011;8598;50.508;10.436;2023-04-16T01:08:48;21.23;;;12.03;;
16963;SDS011;8598;50.508;10.436;2023-04-16T01:11:15;21.93;;;14.20;;
16963;SDS011;8598;50.508;10.436;2023-04-16T01:13:42;24.83;;;15.03;;
16963;SDS011;8598;50.508;10.436;2023-04-16T01:16:09;25.60;;;15.00;;
16963;SDS011;8598;50.508;10.436;2023-04-16T01:18:37;24.03;;;15.63;;
16963;SDS011;8598;50.508;10.436;2023-04-16T01:21:05;25.70;;;17.13;;
16963;SDS011;8598;50.508;10.436;2023-04-16T01:23:32;26.80;;;16.13;;
16963;SDS011;8598;50.508;10.436;2023-04-16T01:25:58;26.53;;;17.00;;
16963;SDS011;8598;50.508;10.436;2023-04-16T01:28:25;28.90;;;16.73;;
16963;SDS011;8598;50.508;10.436;2023-04-16T01:30:52;31.53;;;16.87;;
16963;SDS011;8598;50.508;10.436;2023-04-16T01:33:19;31.23;;;17.43;;
16963;SDS011;8598;50.508;10.436;2023-04-16T01:35:46;30.87;;;18.07;;
16963;SDS011;8598;50.508;10.436;2023-04-16T01:38:14;29.67;;;18.70;;
16963;SDS011;8598;50.508;10.436;2023-04-16T01:40:41;33.63;;;19.23;;
16963;SDS011;8598;50.508;10.436;2023-04-16T01:43:07;34.80;;;19.77;;
16963;SDS011;8598;50.508;10.436;2023-04-16T01:45:34;30.60;;;18.77;;
16963;SDS011;8598;50.508;10.436;2023-04-16T01:48:01;32.30;;;19.23;;
16963;SDS011;8598;50.508;10.436;2023-04-16T01:50:29;31.30;;;19.10;;
16963;SDS011;8598;50.508;10.436;2023-04-16T01:52:56;33.30;;;20.80;;
16963;SDS011;8598;50.508;10.436;2023-04-16T01:55:24;32.67;;;19.40;;
16963;SDS011;8598;50.508;10.436;2023-04-16T01:57:50;32.60;;;19.83;;
16963;SDS011;8598;50.508;10.436;2023-04-16T02:00:17;32.93;;;19.30;;
16963;SDS011;8598;50.508;10.436;2023-04-16T02:02:44;34.57;;;19.70;;
16963;SDS011;8598;50.508;10.436;2023-04-16T02:05:10;36.20;;;20.57;;
16963;SDS011;8598;50.508;10.436;2023-04-16T02:07:37;33.03;;;19.73;;
16963;SDS011;8598;50.508;10.436;2023-04-16T02:10:04;35.13;;;19.67;;
16963;SDS011;8598;50.508;10.436;2023-04-16T02:12:34;33.27;;;19.97;;
16963;SDS011;8598;50.508;10.436;2023-04-16T02:15:01;35.87;;;20.33;;
16963;SDS011;8598;50.508;10.436;2023-04-16T02:17:27;33.97;;;19.77;;
16963;SDS011;8598;50.508;10.436;2023-04-16T02:19:54;30.20;;;18.40;;
16963;SDS011;8598;50.508;10.436;2023-04-16T02:22:21;29.93;;;18.87;;
16963;SDS011;8598;50.508;10.436;2023-04-16T02:24:47;30.90;;;18.87;;
16963;SDS011;8598;50.508;10.436;2023-04-16T02:27:15;33.00;;;20.17;;
16963;SDS011;8598;50.508;10.436;2023-04-16T02:29:43;33.27;;;18.20;;
16963;SDS011;8598;50.508;10.436;2023-04-16T02:32:09;31.03;;;18.73;;
16963;SDS011;8598;50.508;10.436;2023-04-16T02:34:36;33.30;;;19.47;;
16963;SDS011;8598;50.508;10.436;2023-04-16T02:37:04;31.47;;;19.33;;
16963;SDS011;8598;50.508;10.436;2023-04-16T02:39:30;31.00;;;19.03;;
16963;SDS011;8598;50.508;10.436;2023-04-16T02:41:57;29.03;;;16.57;;
16963;SDS011;8598;50.508;10.436;2023-04-16T02:44:25;29.90;;;17.63;;
16963;SDS011;8598;50.508;10.436;2023-04-16T02:46:53;31.23;;;18.00;;
16963;SDS011;8598;50.508;10.436;2023-04-16T02:49:20;29.50;;;18.70;;
16963;SDS011;8598;50.508;10.436;2023-04-16T02:51:46;34.40;;;18.70;;
16963;SDS011;8598;50.508;10.436;2023-04-16T02:54:13;34.33;;;18.13;;
16963;SDS011;8598;50.508;10.436;2023-04-16T02:56:39;32.20;;;17.40;;
16963;SDS011;8598;50.508;10.436;2023-04-16T02:59:06;29.63;;;18.03;;
16963;SDS011;8598;50.508;10.436;2023-04-16T03:01:33;33.93;;;18.67;;
16963;SDS011;8598;50.508;10.436;2023-04-16T03:04:01;32.60;;;18.33;;
16963;SDS011;8598;50.508;10.436;2023-04-16T03:06:27;27.47;;;18.03;;
16963;SDS011;8598;50.508;10.436;2023-04-16T03:08:55;33.13;;;18.40;;
16963;SDS011;8598;50.508;10.436;2023-04-16T03:11:22;32.70;;;19.13;;
16963;SDS011;8598;50.508;10.436;2023-04-16T03:13:48;31.23;;;17.80;;
16963;SDS011;8598;50.508;10.436;2023-04-16T03:16:15;32.90;;;18.37;;
16963;SDS011;8598;50.508;10.436;2023-04-16T03:18:41;29.53;;;17.00;;
16963;SDS011;8598;50.508;10.436;2023-04-16T03:21:09;33.60;;;18.50;;
16963;SDS011;8598;50.508;10.436;2023-04-16T03:23:36;29.70;;;17.40;;
16963;SDS011;8598;50.508;10.436;2023-04-16T03:26:02;32.30;;;17.90;;
16963;SDS011;8598;50.508;10.436;2023-04-16T03:28:30;31.97;;;17.77;;
16963;SDS011;8598;50.508;10.436;2023-04-16T03:30:57;31.30;;;19.07;;
16963;SDS011;8598;50.508;10.436;2023-04-16T03:33:23;37.70;;;20.10;;
16963;SDS011;8598;50.508;10.436;2023-04-16T03:35:56;33.53;;;19.40;;
16963;SDS011;8598;50.508;10.436;2023-04-16T03:38:24;33.73;;;20.13;;
16963;SDS011;8598;50.508;10.436;2023-04-16T03:40:51;31.53;;;18.90;;
16963;SDS011;8598;50.508;10.436;2023-04-16T03:43:17;31.77;;;19.63;;
16963;SDS011;8598;50.508;10.436;2023-04-16T03:45:44;30.97;;;18.47;;
16963;SDS011;8598;50.508;10.436;2023-04-16T03:48:10;34.43;;;19.93;;
16963;SDS011;8598;50.508;10.436;2023-04-16T03:50:37;30.43;;;18.07;;
16963;SDS011;8598;50.508;10.436;2023-04-16T03:53:04;33.07;;;19.53;;
16963;SDS011;8598;50.508;10.436;2023-04-16T03:55:32;29.77;;;17.70;;
16963;SDS011;8598;50.508;10.436;2023-04-16T03:57:59;29.50;;;17.57;;
16963;SDS011;8598;50.508;10.436;2023-04-16T04:00:27;28.17;;;16.60;;
16963;SDS011;8598;50.508;10.436;2023-04-16T04:02:54;31.17;;;18.47;;
16963;SDS011;8598;50.508;10.436;2023-04-16T04:05:20;26.10;;;16.43;;
16963;SDS011;8598;50.508;10.436;2023-04-16T04:07:47;25.13;;;17.07;;
16963;SDS011;8598;50.508;10.436;2023-04-16T04:10:14;25.17;;;15.30;;
16963;SDS011;8598;50.508;10.436;2023-04-16T04:12:42;28.90;;;16.27;;
16963;SDS011;8598;50.508;10.436;2023-04-16T04:15:09;25.40;;;15.63;;
16963;SDS011;8598;50.508;10.436;2023-04-16T04:17:36;28.07;;;15.73;;
16963;SDS011;8598;50.508;10.436;2023-04-16T04:20:03;24.27;;;15.63;;
16963;SDS011;8598;50.508;10.436;2023-04-16T04:22:31;25.80;;;16.50;;
16963;SDS011;8598;50.508;10.436;2023-04-16T04:24:57;25.67;;;15.37;;
16963;SDS011;8598;50.508;10.436;2023-04-16T04:27:24;24.87;;;15.30;;
16963;SDS011;8598;50.508;10.436;2023-04-16T04:29:52;23.67;;;15.37;;
16963;SDS011;8598;50.508;10.436;2023-04-16T04:32:19;24.27;;;14.97;;
16963;SDS011;8598;50.508;10.436;2023-04-16T04:34:45;24.10;;;14.10;;
16963;SDS011;8598;50.508;10.436;2023-04-16T04:37:12;25.00;;;13.47;;
16963;SDS011;8598;50.508;10.436;2023-04-16T04:39:38;21.43;;;13.47;;
16963;SDS011;8598;50.508;10.436;2023-04-16T04:42:05;18.17;;;12.77;;
16963;SDS011;8598;50.508;10.436;2023-04-16T04:44:32;20.80;;;13.37;;
16963;SDS011;8598;50.508;10.436;2023-04-16T04:47:00;20.83;;;13.23;;
16963;SDS011;8598;50.508;10.436;2023-04-16T04:49:26;22.23;;;12.60;;
16963;SDS011;8598;50.508;10.436;2023-04-16T04:51:54;18.53;;;11.53;;
16963;SDS011;8598;50.508;10.436;2023-04-16T04:54:21;18.10;;;11.80;;
16963;SDS011;8598;50.508;10.436;2023-04-16T04:56:47;20.47;;;12.87;;
16963;SDS011;8598;50.508;10.436;2023-04-16T04:59:16;15.27;;;10.87;;
16963;SDS011;8598;50.508;10.436;2023-04-16T05:01:43;19.40;;;11.83;;
16963;SDS011;8598;50.508;10.436;2023-04-16T05:04:10;15.73;;;10.57;;
16963;SDS011;8598;50.508;10.436;2023-04-16T05:06:37;14.93;;;10.00;;
16963;SDS011;8598;50.508;10.436;2023-04-16T05:09:04;15.10;;;9.87;;
16963;SDS011;8598;50.508;10.436;2023-04-16T05:11:35;15.43;;;10.00;;
16963;SDS011;8598;50.508;10.436;2023-04-16T05:14:02;14.53;;;10.53;;
16963;SDS011;8598;50.508;10.436;2023-04-16T05:16:28;15.03;;;9.63;;
16963;SDS011;8598;50.508;10.436;2023-04-16T05:18:55;13.70;;;9.27;;
16963;SDS011;8598;50.508;10.436;2023-04-16T05:21:23;14.90;;;9.87;;
16963;SDS011;8598;50.508;10.436;2023-04-16T05:23:50;13.97;;;9.47;;
16963;SDS011;8598;50.508;10.436;2023-04-16T05:26:16;13.67;;;9.93;;
16963;SDS011;8598;50.508;10.436;2023-04-16T05:28:43;12.00;;;8.67;;
16963;SDS011;8598;50.508;10.436;2023-04-16T05:31:10;14.20;;;8.90;;
16963;SDS011;8598;50.508;10.436;2023-04-16T05:33:36;12.80;;;8.97;;
16963;SDS011;8598;50.508;10.436;2023-04-16T05:36:03;14.20;;;8.77;;
16963;SDS011;8598;50.508;10.436;2023-04-16T05:38:31;13.00;;;8.70;;
16963;SDS011;8598;50.508;10.436;2023-04-16T05:40:58;13.03;;;8.80;;
16963;SDS011;8598;50.508;10.436;2023-04-16T05:43:24;16.77;;;8.50;;
16963;SDS011;8598;50.508;10.436;2023-04-16T05:45:51;11.53;;;7.60;;
16963;SDS011;8598;50.508;10.436;2023-04-16T05:48:18;10.80;;;8.30;;
16963;SDS011;8598;50.508;10.436;2023-04-16T05:50:45;13.30;;;8.97;;
16963;SDS011;8598;50.508;10.436;2023-04-16T05:53:11;11.27;;;8.00;;
16963;SDS011;8598;50.508;10.436;2023-04-16T05:55:40;12.87;;;8.47;;
16963;SDS011;8598;50.508;10.436;2023-04-16T05:58:06;11.03;;;7.33;;
16963;SDS011;8598;50.508;10.436;2023-04-16T06:00:33;12.83;;;7.20;;
16963;SDS011;8598;50.508;10.436;2023-04-16T06:03:00;10.50;;;7.03;;
16963;SDS011;8598;50.508;10.436;2023-04-16T06:05:28;9.17;;;6.53;;
16963;SDS011;8598;50.508;10.436;2023-04-16T06:07:54;8.13;;;6.10;;
16963;SDS011;8598;50.508;10.436;2023-04-16T06:10:21;8.93;;;6.00;;
16963;SDS011;8598;50.508;10.436;2023-04-16T06:12:49;9.63;;;6.80;;
16963;SDS011;8598;50.508;10.436;2023-04-16T06:15:16;9.63;;;6.73;;
16963;SDS011;8598;50.508;10.436;2023-04-16T06:17:42;8.53;;;6.63;;
16963;SDS011;8598;50.508;10.436;2023-04-16T06:20:10;6.47;;;5.57;;
16963;SDS011;8598;50.508;10.436;2023-04-16T06:22:37;7.90;;;5.60;;
16963;SDS011;8598;50.508;10.436;2023-04-16T06:25:04;7.73;;;5.90;;
16963;SDS011;8598;50.508;10.436;2023-04-16T06:27:31;9.17;;;6.37;;
16963;SDS011;8598;50.508;10.436;2023-04-16T06:29:59;7.93;;;5.87;;
16963;SDS011;8598;50.508;10.436;2023-04-16T06:32:26;7.70;;;6.37;;
16963;SDS011;8598;50.508;10.436;2023-04-16T06:34:53;7.00;;;5.70;;
16963;SDS011;8598;50.508;10.436;2023-04-16T06:37:20;6.57;;;5.30;;
16963;SDS011;8598;50.508;10.436;2023-04-16T06:39:46;7.50;;;5.80;;
16963;SDS011;8598;50.508;10.436;2023-04-16T06:42:13;8.27;;;6.03;;
16963;SDS011;8598;50.508;10.436;2023-04-16T06:44:40;7.23;;;5.10;;
16963;SDS011;8598;50.508;10.436;2023-04-16T06:47:08;5.97;;;4.80;;
16963;SDS011;8598;50.508;10.436;2023-04-16T06:49:34;8.23;;;5.30;;
16963;SDS011;8598;50.508;10.436;2023-04-16T06:52:01;8.17;;;5.57;;
16963;SDS011;8598;50.508;10.436;2023-04-16T06:54:27;5.47;;;4.80;;
16963;SDS011;8598;50.508;10.436;2023-04-16T06:56:55;6.80;;;5.20;;
16963;SDS011;8598;50.508;10.436;2023-04-16T06:59:21;5.83;;;4.53;;
16963;SDS011;8598;50.508;10.436;2023-04-16T07:01:48;6.13;;;4.90;;
16963;SDS011;8598;50.508;10.436;2023-04-16T07:04:16;6.57;;;4.80;;
16963;SDS011;8598;50.508;10.436;2023-04-16T07:06:43;6.53;;;4.67;;
16963;SDS011;8598;50.508;10.436;2023-04-16T07:09:10;5.80;;;4.57;;
16963;SDS011;8598;50.508;10.436;2023-04-16T07:11:36;5.67;;;4.07;;
16963;SDS011;8598;50.508;10.436;2023-04-16T07:14:03;5.90;;;4.83;;
16963;SDS011;8598;50.508;10.436;2023-04-16T07:16:30;7.20;;;4.30;;
16963;SDS011;8598;50.508;10.436;2023-04-16T07:18:57;4.80;;;4.27;;
16963;SDS011;8598;50.508;10.436;2023-04-16T07:21:25;5.00;;;4.17;;
16963;SDS011;8598;50.508;10.436;2023-04-16T07:23:51;6.47;;;4.73;;
16963;SDS011;8598;50.508;10.436;2023-04-16T07:26:18;5.97;;;4.50;;
16963;SDS011;8598;50.508;10.436;2023-04-16T07:28:44;6.07;;;4.90;;
16963;SDS011;8598;50.508;10.436;2023-04-16T07:31:11;6.50;;;4.97;;
16963;SDS011;8598;50.508;10.436;2023-04-16T07:33:38;5.47;;;4.67;;
16963;SDS011;8598;50.508;10.436;2023-04-16T07:36:04;5.93;;;4.77;;
16963;SDS011;8598;50.508;10.436;2023-04-16T07:38:33;5.60;;;4.50;;
16963;SDS011;8598;50.508;10.436;2023-04-16T07:40:59;6.53;;;4.87;;
16963;SDS011;8598;50.508;10.436;2023-04-16T07:43:26;7.00;;;5.27;;
16963;SDS011;8598;50.508;10.436;2023-04-16T07:45:53;6.90;;;4.93;;
16963;SDS011;8598;50.508;10.436;2023-04-16T07:48:20;5.33;;;4.27;;
16963;SDS011;8598;50.508;10.436;2023-04-16T07:50:46;5.93;;;4.77;;
16963;SDS011;8598;50.508;10.436;2023-04-16T07:53:14;4.87;;;4.07;;
16963;SDS011;8598;50.508;10.436;2023-04-16T07:55:42;6.70;;;4.40;;
16963;SDS011;8598;50.508;10.436;2023-04-16T07:58:08;4.77;;;3.97;;
16963;SDS011;8598;50.508;10.436;2023-04-16T08:00:35;6.70;;;4.63;;
16963;SDS011;8598;50.508;10.436;2023-04-16T08:03:02;6.07;;;4.30;;
16963;SDS011;8598;50.508;10.436;2023-04-16T08:05:29;4.87;;;4.27;;
16963;SDS011;8598;50.508;10.436;2023-04-16T08:07:55;5.77;;;4.60;;
16963;SDS011;8598;50.508;10.436;2023-04-16T08:10:22;5.83;;;4.43;;
16963;SDS011;8598;50.508;10.436;2023-04-16T08:12:50;5.60;;;4.70;;
16963;SDS011;8598;50.508;10.436;2023-04-16T08:15:17;6.77;;;5.47;;
16963;SDS011;8598;50.508;10.436;2023-04-16T08:17:43;7.83;;;5.10;;
16963;SDS011;8598;50.508;10.436;2023-04-16T08:20:10;6.93;;;5.20;;
16963;SDS011;8598;50.508;10.436;2023-04-16T08:22:37;8.00;;;5.47;;
16963;SDS011;8598;50.508;10.436;2023-04-16T08:25:03;6.87;;;4.87;;
16963;SDS011;8598;50.508;10.436;2023-04-16T08:27:31;7.00;;;5.53;;
16963;SDS011;8598;50.508;10.436;2023-04-16T08:29:58;8.33;;;5.87;;
16963;SDS011;8598;50.508;10.436;2023-04-16T08:32:25;10.23;;;5.50;;
16963;SDS011;8598;50.508;10.436;2023-04-16T08:34:52;6.37;;;4.87;;
16963;SDS011;8598;50.508;10.436;2023-04-16T08:37:18;7.53;;;4.80;;
16963;SDS011;8598;50.508;10.436;2023-04-16T08:39:45;6.37;;;4.83;;
16963;SDS011;8598;50.508;10.436;2023-04-16T08:42:12;5.53;;;4.80;;
16963;SDS011;8598;50.508;10.436;2023-04-16T08:44:46;7.37;;;4.97;;
16963;SDS011;8598;50.508;10.436;2023-04-16T08:47:15;6.97;;;5.20;;
16963;SDS011;8598;50.508;10.436;2023-04-16T08:49:43;9.90;;;4.97;;
16963;SDS011;8598;50.508;10.436;2023-04-16T08:52:11;6.57;;;5.03;;
16963;SDS011;8598;50.508;10.436;2023-04-16T08:54:42;5.43;;;4.40;;
16963;SDS011;8598;50.508;10.436;2023-04-16T08:57:14;6.53;;;4.93;;
16963;SDS011;8598;50.508;10.436;2023-04-16T08:59:44;6.20;;;4.73;;
16963;SDS011;8598;50.508;10.436;2023-04-16T09:02:11;6.77;;;5.13;;
16963;SDS011;8598;50.508;10.436;2023-04-16T09:04:40;7.77;;;5.60;;
16963;SDS011;8598;50.508;10.436;2023-04-16T09:07:07;6.53;;;4.70;;
16963;SDS011;8598;50.508;10.436;2023-04-16T09:09:34;5.67;;;4.83;;
16963;SDS011;8598;50.508;10.436;2023-04-16T09:12:02;5.37;;;4.60;;
16963;SDS011;8598;50.508;10.436;2023-04-16T09:14:30;8.20;;;5.27;;
16963;SDS011;8598;50.508;10.436;2023-04-16T09:16:56;6.87;;;4.90;;
16963;SDS011;8598;50.508;10.436;2023-04-16T09:19:25;5.80;;;4.27;;
16963;SDS011;8598;50.508;10.436;2023-04-16T09:21:53;7.67;;;5.20;;
16963;SDS011;8598;50.508;10.436;2023-04-16T09:24:20;6.37;;;5.13;;
16963;SDS011;8598;50.508;10.436;2023-04-16T09:26:47;5.50;;;4.60;;
16963;SDS011;8598;50.508;10.436;2023-04-16T09:29:25;6.97;;;5.20;;
16963;SDS011;8598;50.508;10.436;2023-04-16T09:32:00;6.20;;;4.90;;
16963;SDS011;8598;50.508;10.436;2023-04-16T09:34:28;6.90;;;4.37;;
16963;SDS011;8598;50.508;10.436;2023-04-16T09:36:58;7.73;;;5.07;;
16963;SDS011;8598;50.508;10.436;2023-04-16T09:39:40;7.77;;;4.50;;
16963;SDS011;8598;50.508;10.436;2023-04-16T09:42:07;7.03;;;4.97;;
16963;SDS011;8598;50.508;10.436;2023-04-16T09:44:34;6.30;;;4.37;;
16963;SDS011;8598;50.508;10.436;2023-04-16T09:47:04;6.03;;;4.93;;
16963;SDS011;8598;50.508;10.436;2023-04-16T09:49:32;7.80;;;4.90;;
16963;SDS011;8598;50.508;10.436;2023-04-16T09:52:02;4.70;;;4.13;;
16963;SDS011;8598;50.508;10.436;2023-04-16T09:54:34;5.87;;;4.40;;
16963;SDS011;8598;50.508;10.436;2023-04-16T09:57:00;10.60;;;5.80;;
16963;SDS011;8598;50.508;10.436;2023-04-16T09:59:28;10.60;;;6.73;;
16963;SDS011;8598;50.508;10.436;2023-04-16T10:01:58;5.67;;;4.63;;
16963;SDS011;8598;50.508;10.436;2023-04-16T10:04:25;6.67;;;5.00;;
16963;SDS011;8598;50.508;10.436;2023-04-16T10:07:02;6.63;;;5.03;;
16963;SDS011;8598;50.508;10.436;2023-04-16T10:09:30;7.13;;;5.17;;
16963;SDS011;8598;50.508;10.436;2023-04-16T10:11:57;6.77;;;4.93;;
16963;SDS011;8598;50.508;10.436;2023-04-16T10:14:24;7.90;;;5.60;;
16963;SDS011;8598;50.508;10.436;2023-04-16T10:16:51;7.37;;;5.80;;
16963;SDS011;8598;50.508;10.436;2023-04-16T10:19:18;6.47;;;4.93;;
16963;SDS011;8598;50.508;10.436;2023-04-16T10:21:46;9.00;;;5.23;;
16963;SDS011;8598;50.508;10.436;2023-04-16T10:24:14;6.07;;;4.87;;
16963;SDS011;8598;50.508;10.436;2023-04-16T10:26:41;7.43;;;5.40;;
16963;SDS011;8598;50.508;10.436;2023-04-16T10:29:10;6.03;;;4.50;;
16963;SDS011;8598;50.508;10.436;2023-04-16T10:31:37;6.63;;;5.20;;
16963;SDS011;8598;50.508;10.436;2023-04-16T10:34:05;7.63;;;5.67;;
16963;SDS011;8598;50.508;10.436;2023-04-16T10:36:35;7.70;;;6.20;;
16963;SDS011;8598;50.508;10.436;2023-04-16T10:39:02;7.40;;;5.50;;
16963;SDS011;8598;50.508;10.436;2023-04-16T10:41:32;8.10;;;6.00;;
16963;SDS011;8598;50.508;10.436;2023-04-16T10:44:05;8.17;;;6.07;;
16963;SDS011;8598;50.508;10.436;2023-04-16T10:46:35;7.70;;;5.90;;
16963;SDS011;8598;50.508;10.436;2023-04-16T10:49:11;8.23;;;6.30;;
16963;SDS011;8598;50.508;10.436;2023-04-16T10:51:38;10.67;;;7.07;;
16963;SDS011;8598;50.508;10.436;2023-04-16T10:54:17;9.13;;;6.80;;
16963;SDS011;8598;50.508;10.436;2023-04-16T10:56:47;8.03;;;6.40;;
16963;SDS011;8598;50.508;10.436;2023-04-16T10:59:16;9.20;;;6.87;;
16963;SDS011;8598;50.508;10.436;2023-04-16T11:01:44;10.70;;;7.43;;
16963;SDS011;8598;50.508;10.436;2023-04-16T11:04:28;11.93;;;7.83;;
16963;SDS011;8598;50.508;10.436;2023-04-16T11:07:00;11.70;;;8.10;;
16963;SDS011;8598;50.508;10.436;2023-04-16T11:09:49;11.10;;;7.70;;
16963;SDS011;8598;50.508;10.436;2023-04-16T11:12:19;11.53;;;8.03;;
16963;SDS011;8598;50.508;10.436;2023-04-16T11:14:47;12.80;;;9.27;;
16963;SDS011;8598;50.508;10.436;2023-04-16T11:17:15;14.87;;;9.07;;
16963;SDS011;8598;50.508;10.436;2023-04-16T11:19:42;13.07;;;8.67;;
16963;SDS011;8598;50.508;10.436;2023-04-16T11:22:10;11.60;;;8.50;;
16963;SDS011;8598;50.508;10.436;2023-04-16T11:24:39;14.43;;;9.37;;
16963;SDS011;8598;50.508;10.436;2023-04-16T11:27:05;16.50;;;11.00;;
16963;SDS011;8598;50.508;10.436;2023-04-16T11:29:34;12.53;;;8.67;;
16963;SDS011;8598;50.508;10.436;2023-04-16T11:32:00;13.67;;;9.83;;
16963;SDS011;8598;50.508;10.436;2023-04-16T11:34:27;13.17;;;8.67;;
16963;SDS011;8598;50.508;10.436;2023-04-16T11:36:54;13.10;;;9.30;;
16963;SDS011;8598;50.508;10.436;2023-04-16T11:39:21;14.00;;;8.80;;
16963;SDS011;8598;50.508;10.436;2023-04-16T11:41:48;14.93;;;9.27;;
16963;SDS011;8598;50.508;10.436;2023-04-16T11:44:19;15.20;;;9.43;;
16963;SDS011;8598;50.508;10.436;2023-04-16T11:46:49;15.70;;;9.67;;
16963;SDS011;8598;50.508;10.436;2023-04-16T11:49:16;13.47;;;9.27;;
16963;SDS011;8598;50.508;10.436;2023-04-16T11:51:51;15.70;;;9.57;;
16963;SDS011;8598;50.508;10.436;2023-04-16T11:54:19;15.30;;;9.53;;
16963;SDS011;8598;50.508;10.436;2023-04-16T11:56:46;16.73;;;10.70;;
16963;SDS011;8598;50.508;10.436;2023-04-16T11:59:15;17.20;;;10.50;;
16963;SDS011;8598;50.508;10.436;2023-04-16T12:01:44;15.57;;;10.33;;
16963;SDS011;8598;50.508;10.436;2023-04-16T12:04:13;15.47;;;9.83;;
16963;SDS011;8598;50.508;10.436;2023-04-16T12:06:51;15.10;;;10.40;;
16963;SDS011;8598;50.508;10.436;2023-04-16T12:09:30;16.57;;;9.90;;
16963;SDS011;8598;50.508;10.436;2023-04-16T12:11:58;16.30;;;9.83;;
16963;SDS011;8598;50.508;10.436;2023-04-16T12:14:25;16.90;;;11.57;;
16963;SDS011;8598;50.508;10.436;2023-04-16T12:16:52;18.90;;;11.37;;
16963;SDS011;8598;50.508;10.436;2023-04-16T12:19:20;16.77;;;11.10;;
16963;SDS011;8598;50.508;10.436;2023-04-16T12:21:47;17.53;;;10.87;;
16963;SDS011;8598;50.508;10.436;2023-04-16T12:24:15;22.53;;;12.90;;
16963;SDS011;8598;50.508;10.436;2023-04-16T12:26:45;22.67;;;12.37;;
16963;SDS011;8598;50.508;10.436;2023-04-16T12:29:13;25.40;;;14.37;;
16963;SDS011;8598;50.508;10.436;2023-04-16T12:31:41;20.73;;;13.03;;
16963;SDS011;8598;50.508;10.436;2023-04-16T12:34:08;21.03;;;12.63;;
16963;SDS011;8598;50.508;10.436;2023-04-16T12:36:36;18.67;;;11.07;;
16963;SDS011;8598;50.508;10.436;2023-04-16T12:39:03;24.57;;;13.70;;
16963;SDS011;8598;50.508;10.436;2023-04-16T12:41:30;22.97;;;12.80;;
16963;SDS011;8598;50.508;10.436;2023-04-16T12:44:03;26.20;;;13.57;;
16963;SDS011;8598;50.508;10.436;2023-04-16T12:46:31;24.30;;;12.33;;
16963;SDS011;8598;50.508;10.436;2023-04-16T12:48:57;22.87;;;13.97;;
16963;SDS011;8598;50.508;10.436;2023-04-16T12:51:24;23.90;;;13.30;;
16963;SDS011;8598;50.508;10.436;2023-04-16T12:53:53;23.10;;;13.67;;
16963;SDS011;8598;50.508;10.436;2023-04-16T12:56:20;23.67;;;14.30;;
16963;SDS011;8598;50.508;10.436;2023-04-16T12:58:47;25.00;;;12.87;;
16963;SDS011;8598;50.508;10.436;2023-04-16T13:01:15;24.13;;;12.63;;
16963;SDS011;8598;50.508;10.436;2023-04-16T13:03:42;20.60;;;11.83;;
16963;SDS011;8598;50.508;10.436;2023-04-16T13:06:09;23.37;;;11.90;;
16963;SDS011;8598;50.508;10.436;2023-04-16T13:08:36;21.97;;;12.20;;
16963;SDS011;8598;50.508;10.436;2023-04-16T13:11:04;23.37;;;13.10;;
16963;SDS011;8598;50.508;10.436;2023-04-16T13:13:31;22.60;;;12.87;;
16963;SDS011;8598;50.508;10.436;2023-04-16T13:15:58;23.70;;;13.37;;
16963;SDS011;8598;50.508;10.436;2023-04-16T13:18:24;19.53;;;11.57;;
16963;SDS011;8598;50.508;10.436;2023-04-16T13:20:52;17.07;;;10.80;;
16963;SDS011;8598;50.508;10.436;2023-04-16T13:23:18;19.90;;;12.23;;
16963;SDS011;8598;50.508;10.436;2023-04-16T13:25:45;21.30;;;11.83;;
16963;SDS011;8598;50.508;10.436;2023-04-16T13:28:13;20.70;;;12.27;;
16963;SDS011;8598;50.508;10.436;2023-04-16T13:30:40;19.13;;;12.00;;
16963;SDS011;8598;50.508;10.436;2023-04-16T13:33:07;21.80;;;11.63;;
16963;SDS011;8598;50.508;10.436;2023-04-16T13:35:34;16.10;;;10.63;;
16963;SDS011;8598;50.508;10.436;2023-04-16T13:38:00;19.27;;;10.77;;
16963;SDS011;8598;50.508;10.436;2023-04-16T13:40:27;20.73;;;10.87;;
16963;SDS011;8598;50.508;10.436;2023-04-16T13:42:54;22.23;;;11.63;;
16963;SDS011;8598;50.508;10.436;2023-04-16T13:45:21;18.23;;;10.70;;
16963;SDS011;8598;50.508;10.436;2023-04-16T13:47:48;19.30;;;11.13;;
16963;SDS011;8598;50.508;10.436;2023-04-16T13:50:15;18.40;;;11.20;;
16963;SDS011;8598;50.508;10.436;2023-04-16T13:52:41;19.60;;;11.57;;
16963;SDS011;8598;50.508;10.436;2023-04-16T13:55:08;19.43;;;10.33;;
16963;SDS011;8598;50.508;10.436;2023-04-16T13:57:37;22.07;;;10.70;;
16963;SDS011;8598;50.508;10.436;2023-04-16T14:00:05;18.40;;;10.87;;
16963;SDS011;8598;50.508;10.436;2023-04-16T14:02:35;24.20;;;13.53;;
16963;SDS011;8598;50.508;10.436;2023-04-16T14:05:01;22.30;;;11.20;;
16963;SDS011;8598;50.508;10.436;2023-04-16T14:07:28;19.63;;;11.37;;
16963;SDS011;8598;50.508;10.436;2023-04-16T14:09:56;17.77;;;11.33;;
16963;SDS011;8598;50.508;10.436;2023-04-16T14:12:23;18.63;;;11.83;;
16963;SDS011;8598;50.508;10.436;2023-04-16T14:14:49;20.43;;;11.80;;
16963;SDS011;8598;50.508;10.436;2023-04-16T14:17:16;21.23;;;12.37;;
16963;SDS011;8598;50.508;10.436;2023-04-16T14:19:44;21.97;;;12.47;;
16963;SDS011;8598;50.508;10.436;2023-04-16T14:22:11;19.17;;;12.23;;
16963;SDS011;8598;50.508;10.436;2023-04-16T14:24:41;21.70;;;12.60;;
16963;SDS011;8598;50.508;10.436;2023-04-16T14:27:08;18.93;;;11.63;;
16963;SDS011;8598;50.508;10.436;2023-04-16T14:29:35;21.50;;;12.13;;
16963;SDS011;8598;50.508;10.436;2023-04-16T14:32:02;19.90;;;11.63;;
16963;SDS011;8598;50.508;10.436;2023-04-16T14:34:29;22.43;;;12.33;;